sensor_id;sensor_type;location;lat;lon;timestamp;P1;durP1;ratioP1;P2;durP2;ratioP2
52858;SDS011;38721;53.098;6.596;2023-01-04T00:01:28;8.70;;;3.60;;
52858;SDS011;38721;53.098;6.596;2023-01-04T00:03:54;8.27;;;3.15;;
52858;SDS011;38721;53.098;6.596;2023-01-04T00:06:19;6.35;;;3.38;;
52858;SDS011;38721;53.098;6.596;2023-01-04T00:08:45;7.63;;;3.33;;
52858;SDS011;38721;53.098;6.596;2023-01-04T00:11:13;9.52;;;3.60;;
52858;SDS011;38721;53.098;6.596;2023-01-04T00:13:44;7.82;;;3.70;;
52858;SDS011;38721;53.098;6.596;2023-01-04T00:16:15;11.77;;;3.63;;
52858;SDS011;38721;53.098;6.596;2023-01-04T00:18:43;12.48;;;4.07;;
52858;SDS011;38721;53.098;6.596;2023-01-04T00:21:11;10.65;;;3.70;;
52858;SDS011;38721;53.098;6.596;2023-01-04T00:23:41;9.88;;;3.25;;
52858;SDS011;38721;53.098;6.596;2023-01-04T00:26:08;8.63;;;3.88;;
52858;SDS011;38721;53.098;6.596;2023-01-04T00:28:36;9.65;;;4.03;;
52858;SDS011;38721;53.098;6.596;2023-01-04T00:31:08;11.38;;;3.35;;
52858;SDS011;38721;53.098;6.596;2023-01-04T00:33:55;9.70;;;4.35;;
52858;SDS011;38721;53.098;6.596;2023-01-04T00:36:22;7.38;;;3.60;;
52858;SDS011;38721;53.098;6.596;2023-01-04T00:38:49;8.88;;;3.80;;
52858;SDS011;38721;53.098;6.596;2023-01-04T00:41:44;9.88;;;3.70;;
52858;SDS011;38721;53.098;6.596;2023-01-04T00:44:16;18.55;;;4.93;;
52858;SDS011;38721;53.098;6.596;2023-01-04T00:46:45;10.70;;;4.53;;
52858;SDS011;38721;53.098;6.596;2023-01-04T00:49:12;8.05;;;4.40;;
52858;SDS011;38721;53.098;6.596;2023-01-04T00:51:38;10.93;;;4.28;;
52858;SDS011;38721;53.098;6.596;2023-01-04T00:54:07;8.95;;;4.20;;
52858;SDS011;38721;53.098;6.596;2023-01-04T00:56:36;10.70;;;4.57;;
52858;SDS011;38721;53.098;6.596;2023-01-04T00:59:02;8.15;;;4.30;;
52858;SDS011;38721;53.098;6.596;2023-01-04T01:01:29;11.27;;;4.57;;
52858;SDS011;38721;53.098;6.596;2023-01-04T01:03:59;11.07;;;4.30;;
52858;SDS011;38721;53.098;6.596;2023-01-04T01:06:30;7.68;;;4.60;;
52858;SDS011;38721;53.098;6.596;2023-01-04T01:09:00;11.88;;;4.38;;
52858;SDS011;38721;53.098;6.596;2023-01-04T01:11:27;9.85;;;4.38;;
52858;SDS011;38721;53.098;6.596;2023-01-04T01:13:53;12.63;;;4.78;;
52858;SDS011;38721;53.098;6.596;2023-01-04T01:16:20;7.35;;;4.15;;
52858;SDS011;38721;53.098;6.596;2023-01-04T01:18:47;7.53;;;4.07;;
52858;SDS011;38721;53.098;6.596;2023-01-04T01:21:14;10.52;;;3.80;;
52858;SDS011;38721;53.098;6.596;2023-01-04T01:23:41;12.32;;;4.32;;
52858;SDS011;38721;53.098;6.596;2023-01-04T01:26:09;7.40;;;4.28;;
52858;SDS011;38721;53.098;6.596;2023-01-04T01:28:37;8.00;;;4.03;;
52858;SDS011;38721;53.098;6.596;2023-01-04T01:31:07;7.85;;;4.80;;
52858;SDS011;38721;53.098;6.596;2023-01-04T01:33:38;6.15;;;3.78;;
52858;SDS011;38721;53.098;6.596;2023-01-04T01:36:05;9.80;;;3.90;;
52858;SDS011;38721;53.098;6.596;2023-01-04T01:38:31;10.82;;;4.20;;
52858;SDS011;38721;53.098;6.596;2023-01-04T01:41:00;11.90;;;3.97;;
52858;SDS011;38721;53.098;6.596;2023-01-04T01:46:14;6.97;;;4.20;;
52858;SDS011;38721;53.098;6.596;2023-01-04T01:48:48;8.32;;;4.10;;
52858;SDS011;38721;53.098;6.596;2023-01-04T01:51:17;4.60;;;3.67;;
52858;SDS011;38721;53.098;6.596;2023-01-04T01:53:44;9.15;;;4.03;;
52858;SDS011;38721;53.098;6.596;2023-01-04T01:56:17;7.13;;;3.80;;
52858;SDS011;38721;53.098;6.596;2023-01-04T01:58:44;7.55;;;4.05;;
52858;SDS011;38721;53.098;6.596;2023-01-04T02:01:13;5.38;;;3.88;;
52858;SDS011;38721;53.098;6.596;2023-01-04T02:03:40;7.00;;;4.30;;
52858;SDS011;38721;53.098;6.596;2023-01-04T02:06:16;7.50;;;3.90;;
52858;SDS011;38721;53.098;6.596;2023-01-04T02:08:43;6.50;;;3.58;;
52858;SDS011;38721;53.098;6.596;2023-01-04T02:11:10;6.07;;;4.00;;
52858;SDS011;38721;53.098;6.596;2023-01-04T02:13:36;8.07;;;3.75;;
52858;SDS011;38721;53.098;6.596;2023-01-04T02:27:47;8.48;;;3.47;;
52858;SDS011;38721;53.098;6.596;2023-01-04T02:33:15;4.75;;;2.90;;
52858;SDS011;38721;53.098;6.596;2023-01-04T02:36:13;5.40;;;2.85;;
52858;SDS011;38721;53.098;6.596;2023-01-04T02:42:12;3.78;;;2.78;;
52858;SDS011;38721;53.098;6.596;2023-01-04T02:44:31;5.05;;;2.70;;
52858;SDS011;38721;53.098;6.596;2023-01-04T02:50:54;3.80;;;2.45;;
52858;SDS011;38721;53.098;6.596;2023-01-04T02:55:29;3.65;;;2.10;;
52858;SDS011;38721;53.098;6.596;2023-01-04T02:58:48;3.78;;;2.60;;
52858;SDS011;38721;53.098;6.596;2023-01-04T03:10:19;3.75;;;2.22;;
52858;SDS011;38721;53.098;6.596;2023-01-04T03:12:48;3.67;;;2.50;;
52858;SDS011;38721;53.098;6.596;2023-01-04T03:15:20;4.20;;;2.30;;
52858;SDS011;38721;53.098;6.596;2023-01-04T03:17:53;3.78;;;2.20;;
52858;SDS011;38721;53.098;6.596;2023-01-04T03:20:22;2.72;;;2.25;;
52858;SDS011;38721;53.098;6.596;2023-01-04T03:22:52;3.15;;;2.00;;
52858;SDS011;38721;53.098;6.596;2023-01-04T03:25:47;4.15;;;2.00;;
52858;SDS011;38721;53.098;6.596;2023-01-04T03:28:37;5.85;;;1.90;;
52858;SDS011;38721;53.098;6.596;2023-01-04T03:31:30;2.13;;;1.73;;
52858;SDS011;38721;53.098;6.596;2023-01-04T03:34:31;3.47;;;1.90;;
52858;SDS011;38721;53.098;6.596;2023-01-04T03:37:36;2.50;;;1.50;;
52858;SDS011;38721;53.098;6.596;2023-01-04T03:40:45;2.58;;;2.00;;
52858;SDS011;38721;53.098;6.596;2023-01-04T03:43:42;3.88;;;2.20;;
52858;SDS011;38721;53.098;6.596;2023-01-04T03:46:55;2.53;;;1.83;;
52858;SDS011;38721;53.098;6.596;2023-01-04T03:49:51;2.35;;;1.60;;
52858;SDS011;38721;53.098;6.596;2023-01-04T03:52:24;3.08;;;2.00;;
52858;SDS011;38721;53.098;6.596;2023-01-04T03:54:55;2.30;;;2.00;;
52858;SDS011;38721;53.098;6.596;2023-01-04T03:57:24;2.35;;;2.10;;
52858;SDS011;38721;53.098;6.596;2023-01-04T03:59:56;3.05;;;1.90;;
52858;SDS011;38721;53.098;6.596;2023-01-04T04:02:32;2.47;;;2.10;;
52858;SDS011;38721;53.098;6.596;2023-01-04T04:05:03;3.92;;;2.10;;
52858;SDS011;38721;53.098;6.596;2023-01-04T04:07:48;2.50;;;2.10;;
52858;SDS011;38721;53.098;6.596;2023-01-04T04:10:33;4.13;;;2.33;;
52858;SDS011;38721;53.098;6.596;2023-01-04T04:13:01;2.20;;;2.00;;
52858;SDS011;38721;53.098;6.596;2023-01-04T04:15:26;2.97;;;2.00;;
52858;SDS011;38721;53.098;6.596;2023-01-04T04:17:52;2.50;;;2.10;;
52858;SDS011;38721;53.098;6.596;2023-01-04T04:20:18;2.22;;;2.03;;
52858;SDS011;38721;53.098;6.596;2023-01-04T04:22:43;2.33;;;1.85;;
52858;SDS011;38721;53.098;6.596;2023-01-04T04:25:09;2.22;;;1.90;;
52858;SDS011;38721;53.098;6.596;2023-01-04T04:27:35;2.22;;;2.03;;
52858;SDS011;38721;53.098;6.596;2023-01-04T04:30:00;2.22;;;2.03;;
52858;SDS011;38721;53.098;6.596;2023-01-04T04:32:29;2.20;;;2.00;;
52858;SDS011;38721;53.098;6.596;2023-01-04T04:34:55;2.20;;;2.00;;
52858;SDS011;38721;53.098;6.596;2023-01-04T04:37:21;2.35;;;1.80;;
52858;SDS011;38721;53.098;6.596;2023-01-04T04:39:46;2.30;;;2.10;;
52858;SDS011;38721;53.098;6.596;2023-01-04T04:42:12;2.30;;;2.10;;
52858;SDS011;38721;53.098;6.596;2023-01-04T04:44:37;2.40;;;2.10;;
52858;SDS011;38721;53.098;6.596;2023-01-04T04:47:03;2.50;;;2.03;;
52858;SDS011;38721;53.098;6.596;2023-01-04T04:49:29;2.78;;;2.38;;
52858;SDS011;38721;53.098;6.596;2023-01-04T04:51:58;3.83;;;2.70;;
52858;SDS011;38721;53.098;6.596;2023-01-04T04:54:23;2.67;;;2.33;;
52858;SDS011;38721;53.098;6.596;2023-01-04T04:56:49;2.30;;;2.10;;
52858;SDS011;38721;53.098;6.596;2023-01-04T04:59:14;3.80;;;2.40;;
52858;SDS011;38721;53.098;6.596;2023-01-04T05:01:40;2.90;;;2.33;;
52858;SDS011;38721;53.098;6.596;2023-01-04T05:04:06;2.75;;;2.35;;
52858;SDS011;38721;53.098;6.596;2023-01-04T05:06:32;2.72;;;2.50;;
52858;SDS011;38721;53.098;6.596;2023-01-04T05:09:01;3.00;;;2.70;;
52858;SDS011;38721;53.098;6.596;2023-01-04T05:11:26;3.28;;;2.58;;
52858;SDS011;38721;53.098;6.596;2023-01-04T05:14:10;2.90;;;2.45;;
52858;SDS011;38721;53.098;6.596;2023-01-04T05:16:36;3.67;;;2.55;;
52858;SDS011;38721;53.098;6.596;2023-01-04T05:19:02;3.17;;;2.80;;
52858;SDS011;38721;53.098;6.596;2023-01-04T05:21:28;2.83;;;2.53;;
52858;SDS011;38721;53.098;6.596;2023-01-04T05:23:56;3.60;;;2.70;;
52858;SDS011;38721;53.098;6.596;2023-01-04T05:26:24;4.45;;;2.83;;
52858;SDS011;38721;53.098;6.596;2023-01-04T05:28:50;4.43;;;2.90;;
52858;SDS011;38721;53.098;6.596;2023-01-04T05:31:16;4.28;;;3.00;;
52858;SDS011;38721;53.098;6.596;2023-01-04T05:33:41;3.42;;;2.67;;
52858;SDS011;38721;53.098;6.596;2023-01-04T05:36:07;4.25;;;2.78;;
52858;SDS011;38721;53.098;6.596;2023-01-04T05:38:36;3.60;;;2.78;;
52858;SDS011;38721;53.098;6.596;2023-01-04T05:41:01;5.95;;;2.95;;
52858;SDS011;38721;53.098;6.596;2023-01-04T05:43:27;3.53;;;2.70;;
52858;SDS011;38721;53.098;6.596;2023-01-04T05:45:53;2.67;;;2.45;;
52858;SDS011;38721;53.098;6.596;2023-01-04T05:48:20;3.60;;;2.70;;
52858;SDS011;38721;53.098;6.596;2023-01-04T05:50:47;3.25;;;2.90;;
52858;SDS011;38721;53.098;6.596;2023-01-04T05:53:16;4.47;;;2.72;;
52858;SDS011;38721;53.098;6.596;2023-01-04T05:55:43;3.25;;;2.65;;
52858;SDS011;38721;53.098;6.596;2023-01-04T05:58:09;2.88;;;2.60;;
52858;SDS011;38721;53.098;6.596;2023-01-04T06:00:35;6.88;;;3.00;;
52858;SDS011;38721;53.098;6.596;2023-01-04T06:03:01;4.65;;;2.72;;
52858;SDS011;38721;53.098;6.596;2023-01-04T06:05:26;4.20;;;2.78;;
52858;SDS011;38721;53.098;6.596;2023-01-04T06:07:52;4.28;;;3.00;;
52858;SDS011;38721;53.098;6.596;2023-01-04T06:10:21;3.70;;;2.83;;
52858;SDS011;38721;53.098;6.596;2023-01-04T06:12:46;3.80;;;2.50;;
52858;SDS011;38721;53.098;6.596;2023-01-04T06:15:12;3.78;;;2.55;;
52858;SDS011;38721;53.098;6.596;2023-01-04T06:17:38;3.97;;;2.80;;
52858;SDS011;38721;53.098;6.596;2023-01-04T06:20:04;3.20;;;2.63;;
52858;SDS011;38721;53.098;6.596;2023-01-04T06:22:33;4.30;;;2.83;;
52858;SDS011;38721;53.098;6.596;2023-01-04T06:25:04;4.63;;;2.55;;
52858;SDS011;38721;53.098;6.596;2023-01-04T06:27:30;3.85;;;2.60;;
52858;SDS011;38721;53.098;6.596;2023-01-04T06:29:56;3.78;;;2.58;;
52858;SDS011;38721;53.098;6.596;2023-01-04T06:32:21;2.95;;;2.65;;
52858;SDS011;38721;53.098;6.596;2023-01-04T06:34:47;2.70;;;2.30;;
52858;SDS011;38721;53.098;6.596;2023-01-04T06:37:13;2.50;;;2.20;;
52858;SDS011;38721;53.098;6.596;2023-01-04T06:39:38;4.07;;;2.45;;
52858;SDS011;38721;53.098;6.596;2023-01-04T06:42:04;3.65;;;2.33;;
52858;SDS011;38721;53.098;6.596;2023-01-04T06:44:30;3.28;;;2.08;;
52858;SDS011;38721;53.098;6.596;2023-01-04T06:46:55;4.10;;;2.08;;
52858;SDS011;38721;53.098;6.596;2023-01-04T06:49:21;3.10;;;2.45;;
52858;SDS011;38721;53.098;6.596;2023-01-04T06:51:47;3.10;;;2.25;;
52858;SDS011;38721;53.098;6.596;2023-01-04T06:54:12;3.38;;;2.28;;
52858;SDS011;38721;53.098;6.596;2023-01-04T06:56:39;3.47;;;2.10;;
52858;SDS011;38721;53.098;6.596;2023-01-04T06:59:05;3.50;;;2.10;;
52858;SDS011;38721;53.098;6.596;2023-01-04T07:01:34;2.92;;;1.75;;
52858;SDS011;38721;53.098;6.596;2023-01-04T07:04:00;3.15;;;1.83;;
52858;SDS011;38721;53.098;6.596;2023-01-04T07:06:25;2.50;;;1.85;;
52858;SDS011;38721;53.098;6.596;2023-01-04T07:08:51;2.00;;;1.80;;
52858;SDS011;38721;53.098;6.596;2023-01-04T07:11:17;3.53;;;1.90;;
52858;SDS011;38721;53.098;6.596;2023-01-04T07:13:42;2.67;;;2.15;;
52858;SDS011;38721;53.098;6.596;2023-01-04T07:16:08;2.45;;;1.92;;
52858;SDS011;38721;53.098;6.596;2023-01-04T07:18:37;2.42;;;2.00;;
52858;SDS011;38721;53.098;6.596;2023-01-04T07:21:02;3.10;;;2.00;;
52858;SDS011;38721;53.098;6.596;2023-01-04T07:23:28;2.95;;;2.28;;
52858;SDS011;38721;53.098;6.596;2023-01-04T07:25:54;3.60;;;2.30;;
52858;SDS011;38721;53.098;6.596;2023-01-04T07:28:19;3.80;;;2.80;;
52858;SDS011;38721;53.098;6.596;2023-01-04T07:31:04;5.15;;;2.75;;
52858;SDS011;38721;53.098;6.596;2023-01-04T07:33:34;2.35;;;2.00;;
52858;SDS011;38721;53.098;6.596;2023-01-04T07:36:00;4.22;;;2.22;;
52858;SDS011;38721;53.098;6.596;2023-01-04T07:38:27;2.88;;;2.10;;
52858;SDS011;38721;53.098;6.596;2023-01-04T07:40:53;2.35;;;2.10;;
52858;SDS011;38721;53.098;6.596;2023-01-04T07:43:18;2.30;;;1.80;;
52858;SDS011;38721;53.098;6.596;2023-01-04T07:45:44;2.60;;;2.00;;
52858;SDS011;38721;53.098;6.596;2023-01-04T07:48:13;2.97;;;1.60;;
52858;SDS011;38721;53.098;6.596;2023-01-04T07:50:39;2.63;;;1.55;;
52858;SDS011;38721;53.098;6.596;2023-01-04T07:53:04;1.70;;;1.40;;
52858;SDS011;38721;53.098;6.596;2023-01-04T07:55:30;2.08;;;1.58;;
52858;SDS011;38721;53.098;6.596;2023-01-04T07:57:55;4.07;;;1.80;;
52858;SDS011;38721;53.098;6.596;2023-01-04T08:00:21;2.13;;;1.70;;
52858;SDS011;38721;53.098;6.596;2023-01-04T08:02:50;2.88;;;1.60;;
52858;SDS011;38721;53.098;6.596;2023-01-04T08:05:15;2.13;;;1.92;;
52858;SDS011;38721;53.098;6.596;2023-01-04T08:07:41;2.13;;;1.60;;
52858;SDS011;38721;53.098;6.596;2023-01-04T08:10:07;2.63;;;1.58;;
52858;SDS011;38721;53.098;6.596;2023-01-04T08:12:33;2.40;;;1.60;;
52858;SDS011;38721;53.098;6.596;2023-01-04T08:14:59;2.35;;;1.80;;
52858;SDS011;38721;53.098;6.596;2023-01-04T08:17:25;2.00;;;1.70;;
52858;SDS011;38721;53.098;6.596;2023-01-04T08:19:57;2.17;;;1.67;;
52858;SDS011;38721;53.098;6.596;2023-01-04T08:22:22;2.05;;;1.70;;
52858;SDS011;38721;53.098;6.596;2023-01-04T08:24:48;3.08;;;1.50;;
52858;SDS011;38721;53.098;6.596;2023-01-04T08:27:13;1.75;;;1.50;;
52858;SDS011;38721;53.098;6.596;2023-01-04T08:29:39;2.70;;;1.80;;
52858;SDS011;38721;53.098;6.596;2023-01-04T08:32:05;2.28;;;1.73;;
52858;SDS011;38721;53.098;6.596;2023-01-04T08:34:30;2.15;;;1.77;;
52858;SDS011;38721;53.098;6.596;2023-01-04T08:36:56;2.47;;;1.80;;
52858;SDS011;38721;53.098;6.596;2023-01-04T08:39:25;3.22;;;1.80;;
52858;SDS011;38721;53.098;6.596;2023-01-04T08:41:57;2.65;;;2.00;;
52858;SDS011;38721;53.098;6.596;2023-01-04T08:44:23;2.80;;;1.95;;
52858;SDS011;38721;53.098;6.596;2023-01-04T08:46:50;3.30;;;2.08;;
52858;SDS011;38721;53.098;6.596;2023-01-04T08:49:20;3.10;;;2.00;;
52858;SDS011;38721;53.098;6.596;2023-01-04T08:51:47;3.25;;;2.30;;
52858;SDS011;38721;53.098;6.596;2023-01-04T08:54:13;3.70;;;2.10;;
52858;SDS011;38721;53.098;6.596;2023-01-04T08:56:39;3.58;;;2.28;;
52858;SDS011;38721;53.098;6.596;2023-01-04T08:59:05;2.47;;;2.20;;
52858;SDS011;38721;53.098;6.596;2023-01-04T09:01:32;2.95;;;2.20;;
52858;SDS011;38721;53.098;6.596;2023-01-04T09:03:58;3.22;;;2.33;;
52858;SDS011;38721;53.098;6.596;2023-01-04T09:06:24;2.80;;;2.17;;
52858;SDS011;38721;53.098;6.596;2023-01-04T09:08:50;2.85;;;1.80;;
52858;SDS011;38721;53.098;6.596;2023-01-04T09:11:17;2.05;;;1.85;;
52858;SDS011;38721;53.098;6.596;2023-01-04T09:13:45;2.25;;;1.70;;
52858;SDS011;38721;53.098;6.596;2023-01-04T09:16:15;1.92;;;1.63;;
52858;SDS011;38721;53.098;6.596;2023-01-04T09:18:43;2.03;;;1.40;;
52858;SDS011;38721;53.098;6.596;2023-01-04T09:21:10;1.60;;;1.50;;
52858;SDS011;38721;53.098;6.596;2023-01-04T09:23:43;2.00;;;1.27;;
52858;SDS011;38721;53.098;6.596;2023-01-04T09:29:01;2.95;;;1.75;;
52858;SDS011;38721;53.098;6.596;2023-01-04T09:31:28;2.10;;;1.52;;
52858;SDS011;38721;53.098;6.596;2023-01-04T09:33:54;2.40;;;1.45;;
52858;SDS011;38721;53.098;6.596;2023-01-04T09:36:20;2.97;;;1.52;;
52858;SDS011;38721;53.098;6.596;2023-01-04T09:38:48;3.10;;;1.63;;
52858;SDS011;38721;53.098;6.596;2023-01-04T09:41:27;2.80;;;1.50;;
52858;SDS011;38721;53.098;6.596;2023-01-04T09:49:12;5.13;;;1.97;;
52858;SDS011;38721;53.098;6.596;2023-01-04T09:51:44;4.38;;;2.03;;
52858;SDS011;38721;53.098;6.596;2023-01-04T09:54:22;3.97;;;2.42;;
52858;SDS011;38721;53.098;6.596;2023-01-04T09:56:54;5.25;;;2.20;;
52858;SDS011;38721;53.098;6.596;2023-01-04T09:59:28;5.82;;;2.45;;
52858;SDS011;38721;53.098;6.596;2023-01-04T10:02:08;6.70;;;2.65;;
52858;SDS011;38721;53.098;6.596;2023-01-04T10:04:43;6.43;;;2.95;;
52858;SDS011;38721;53.098;6.596;2023-01-04T10:07:26;5.70;;;2.70;;
52858;SDS011;38721;53.098;6.596;2023-01-04T10:09:55;6.60;;;2.95;;
52858;SDS011;38721;53.098;6.596;2023-01-04T10:15:29;9.07;;;2.88;;
52858;SDS011;38721;53.098;6.596;2023-01-04T10:20:51;7.43;;;2.60;;
52858;SDS011;38721;53.098;6.596;2023-01-04T10:34:32;11.95;;;3.60;;
52858;SDS011;38721;53.098;6.596;2023-01-04T10:37:10;11.80;;;3.28;;
52858;SDS011;38721;53.098;6.596;2023-01-04T10:39:42;13.45;;;3.28;;
52858;SDS011;38721;53.098;6.596;2023-01-04T10:45:06;16.52;;;3.50;;
52858;SDS011;38721;53.098;6.596;2023-01-04T10:47:45;20.30;;;3.95;;
52858;SDS011;38721;53.098;6.596;2023-01-04T10:53:03;19.92;;;5.13;;
52858;SDS011;38721;53.098;6.596;2023-01-04T10:55:52;14.13;;;4.05;;
52858;SDS011;38721;53.098;6.596;2023-01-04T11:00:56;22.88;;;5.28;;
52858;SDS011;38721;53.098;6.596;2023-01-04T11:03:30;23.10;;;4.72;;
52858;SDS011;38721;53.098;6.596;2023-01-04T11:08:46;19.70;;;5.30;;
52858;SDS011;38721;53.098;6.596;2023-01-04T11:11:22;26.23;;;5.20;;
52858;SDS011;38721;53.098;6.596;2023-01-04T11:13:50;21.95;;;4.80;;
52858;SDS011;38721;53.098;6.596;2023-01-04T11:16:16;22.70;;;4.93;;
52858;SDS011;38721;53.098;6.596;2023-01-04T11:18:42;30.73;;;6.28;;
52858;SDS011;38721;53.098;6.596;2023-01-04T11:21:11;29.52;;;5.32;;
52858;SDS011;38721;53.098;6.596;2023-01-04T11:23:38;25.50;;;4.85;;
52858;SDS011;38721;53.098;6.596;2023-01-04T11:26:09;26.23;;;6.18;;
52858;SDS011;38721;53.098;6.596;2023-01-04T11:28:42;26.95;;;5.80;;
52858;SDS011;38721;53.098;6.596;2023-01-04T11:31:18;22.05;;;5.18;;
52858;SDS011;38721;53.098;6.596;2023-01-04T11:33:59;27.52;;;4.82;;
52858;SDS011;38721;53.098;6.596;2023-01-04T11:36:42;20.60;;;4.93;;
52858;SDS011;38721;53.098;6.596;2023-01-04T11:39:19;23.85;;;4.57;;
52858;SDS011;38721;53.098;6.596;2023-01-04T11:41:56;24.52;;;4.65;;
52858;SDS011;38721;53.098;6.596;2023-01-04T11:44:28;23.30;;;5.15;;
52858;SDS011;38721;53.098;6.596;2023-01-04T11:47:10;20.85;;;4.22;;
52858;SDS011;38721;53.098;6.596;2023-01-04T11:49:44;21.42;;;4.38;;
52858;SDS011;38721;53.098;6.596;2023-01-04T11:52:44;21.15;;;4.65;;
52858;SDS011;38721;53.098;6.596;2023-01-04T11:58:12;28.88;;;5.30;;
52858;SDS011;38721;53.098;6.596;2023-01-04T12:00:53;24.88;;;4.47;;
52858;SDS011;38721;53.098;6.596;2023-01-04T12:06:18;27.33;;;4.28;;
52858;SDS011;38721;53.098;6.596;2023-01-04T12:09:05;21.65;;;4.80;;
52858;SDS011;38721;53.098;6.596;2023-01-04T12:14:36;18.35;;;4.30;;
52858;SDS011;38721;53.098;6.596;2023-01-04T12:17:15;15.82;;;3.95;;
52858;SDS011;38721;53.098;6.596;2023-01-04T12:19:52;17.40;;;3.72;;
52858;SDS011;38721;53.098;6.596;2023-01-04T12:22:36;15.95;;;3.88;;
52858;SDS011;38721;53.098;6.596;2023-01-04T12:25:04;22.52;;;4.03;;
52858;SDS011;38721;53.098;6.596;2023-01-04T12:27:45;15.57;;;3.97;;
52858;SDS011;38721;53.098;6.596;2023-01-04T12:30:31;14.57;;;3.38;;
52858;SDS011;38721;53.098;6.596;2023-01-04T12:33:00;10.50;;;3.63;;
52858;SDS011;38721;53.098;6.596;2023-01-04T12:36:01;15.63;;;3.15;;
52858;SDS011;38721;53.098;6.596;2023-01-04T12:41:19;12.18;;;3.00;;
52858;SDS011;38721;53.098;6.596;2023-01-04T12:43:46;11.30;;;2.47;;
52858;SDS011;38721;53.098;6.596;2023-01-04T12:54:43;8.50;;;2.60;;
52858;SDS011;38721;53.098;6.596;2023-01-04T12:57:21;7.35;;;1.85;;
52858;SDS011;38721;53.098;6.596;2023-01-04T13:00:03;5.35;;;1.80;;
52858;SDS011;38721;53.098;6.596;2023-01-04T13:02:34;6.57;;;2.10;;
52858;SDS011;38721;53.098;6.596;2023-01-04T13:15:22;7.50;;;2.38;;
52858;SDS011;38721;53.098;6.596;2023-01-04T13:18:19;10.95;;;2.40;;
52858;SDS011;38721;53.098;6.596;2023-01-04T13:21:27;9.52;;;2.13;;
52858;SDS011;38721;53.098;6.596;2023-01-04T13:24:00;11.15;;;2.60;;
52858;SDS011;38721;53.098;6.596;2023-01-04T13:26:48;11.20;;;3.00;;
52858;SDS011;38721;53.098;6.596;2023-01-04T13:31:47;17.65;;;3.40;;
52858;SDS011;38721;53.098;6.596;2023-01-04T13:34:21;16.17;;;3.20;;
52858;SDS011;38721;53.098;6.596;2023-01-04T13:39:39;14.88;;;3.75;;
52858;SDS011;38721;53.098;6.596;2023-01-04T13:42:15;17.17;;;4.22;;
52858;SDS011;38721;53.098;6.596;2023-01-04T13:47:18;19.50;;;4.03;;
52858;SDS011;38721;53.098;6.596;2023-01-04T13:49:44;18.30;;;3.65;;
52858;SDS011;38721;53.098;6.596;2023-01-04T13:52:28;16.30;;;3.33;;
52858;SDS011;38721;53.098;6.596;2023-01-04T13:55:11;18.33;;;4.10;;
52858;SDS011;38721;53.098;6.596;2023-01-04T14:06:28;16.23;;;3.73;;
52858;SDS011;38721;53.098;6.596;2023-01-04T14:11:42;18.42;;;3.67;;
52858;SDS011;38721;53.098;6.596;2023-01-04T14:14:44;14.57;;;3.88;;
52858;SDS011;38721;53.098;6.596;2023-01-04T14:17:22;18.42;;;3.42;;
52858;SDS011;38721;53.098;6.596;2023-01-04T14:19:49;17.60;;;3.65;;
52858;SDS011;38721;53.098;6.596;2023-01-04T14:24:51;28.67;;;4.57;;
52858;SDS011;38721;53.098;6.596;2023-01-04T14:32:58;16.90;;;3.55;;
52858;SDS011;38721;53.098;6.596;2023-01-04T14:35:37;23.57;;;4.03;;
52858;SDS011;38721;53.098;6.596;2023-01-04T14:38:10;16.98;;;3.08;;
52858;SDS011;38721;53.098;6.596;2023-01-04T14:40:39;15.30;;;3.65;;
52858;SDS011;38721;53.098;6.596;2023-01-04T14:45:58;13.27;;;3.13;;
52858;SDS011;38721;53.098;6.596;2023-01-04T14:48:23;17.40;;;2.97;;
52858;SDS011;38721;53.098;6.596;2023-01-04T14:50:49;16.02;;;4.10;;
52858;SDS011;38721;53.098;6.596;2023-01-04T14:53:15;19.83;;;4.55;;
52858;SDS011;38721;53.098;6.596;2023-01-04T14:55:42;19.55;;;3.50;;
52858;SDS011;38721;53.098;6.596;2023-01-04T14:58:08;14.88;;;3.50;;
52858;SDS011;38721;53.098;6.596;2023-01-04T15:00:34;18.30;;;3.38;;
52858;SDS011;38721;53.098;6.596;2023-01-04T15:03:00;20.75;;;4.43;;
52858;SDS011;38721;53.098;6.596;2023-01-04T15:05:25;18.60;;;4.00;;
52858;SDS011;38721;53.098;6.596;2023-01-04T15:07:51;24.20;;;3.80;;
52858;SDS011;38721;53.098;6.596;2023-01-04T15:10:18;18.35;;;3.67;;
52858;SDS011;38721;53.098;6.596;2023-01-04T15:12:46;18.23;;;4.10;;
52858;SDS011;38721;53.098;6.596;2023-01-04T15:15:12;19.20;;;4.05;;
52858;SDS011;38721;53.098;6.596;2023-01-04T15:17:38;23.40;;;3.70;;
52858;SDS011;38721;53.098;6.596;2023-01-04T15:20:04;20.58;;;3.65;;
52858;SDS011;38721;53.098;6.596;2023-01-04T15:22:30;21.88;;;4.32;;
52858;SDS011;38721;53.098;6.596;2023-01-04T15:24:55;21.27;;;4.30;;
52858;SDS011;38721;53.098;6.596;2023-01-04T15:27:21;23.77;;;4.50;;
52858;SDS011;38721;53.098;6.596;2023-01-04T15:29:47;18.58;;;4.15;;
52858;SDS011;38721;53.098;6.596;2023-01-04T15:32:12;17.85;;;4.22;;
52858;SDS011;38721;53.098;6.596;2023-01-04T15:34:38;18.83;;;3.60;;
52858;SDS011;38721;53.098;6.596;2023-01-04T15:37:04;14.45;;;3.92;;
52858;SDS011;38721;53.098;6.596;2023-01-04T15:39:29;13.98;;;4.00;;
52858;SDS011;38721;53.098;6.596;2023-01-04T15:41:55;19.83;;;3.75;;
52858;SDS011;38721;53.098;6.596;2023-01-04T15:44:39;19.45;;;3.70;;
52858;SDS011;38721;53.098;6.596;2023-01-04T15:47:09;19.13;;;4.20;;
52858;SDS011;38721;53.098;6.596;2023-01-04T15:49:35;17.92;;;3.83;;
52858;SDS011;38721;53.098;6.596;2023-01-04T15:52:00;17.63;;;3.53;;
52858;SDS011;38721;53.098;6.596;2023-01-04T15:54:27;20.17;;;4.57;;
52858;SDS011;38721;53.098;6.596;2023-01-04T15:56:53;16.33;;;3.50;;
52858;SDS011;38721;53.098;6.596;2023-01-04T15:59:19;20.10;;;4.07;;
52858;SDS011;38721;53.098;6.596;2023-01-04T16:01:45;15.05;;;3.72;;
52858;SDS011;38721;53.098;6.596;2023-01-04T16:04:11;15.98;;;3.80;;
52858;SDS011;38721;53.098;6.596;2023-01-04T16:06:38;17.20;;;4.57;;
52858;SDS011;38721;53.098;6.596;2023-01-04T16:09:04;20.23;;;4.30;;
52858;SDS011;38721;53.098;6.596;2023-01-04T16:11:30;18.02;;;3.50;;
52858;SDS011;38721;53.098;6.596;2023-01-04T16:13:56;15.55;;;3.40;;
52858;SDS011;38721;53.098;6.596;2023-01-04T16:16:23;25.15;;;3.88;;
52858;SDS011;38721;53.098;6.596;2023-01-04T16:18:54;20.73;;;3.90;;
52858;SDS011;38721;53.098;6.596;2023-01-04T16:21:22;18.48;;;4.20;;
52858;SDS011;38721;53.098;6.596;2023-01-04T16:23:56;22.35;;;4.85;;
52858;SDS011;38721;53.098;6.596;2023-01-04T16:26:22;24.35;;;4.63;;
52858;SDS011;38721;53.098;6.596;2023-01-04T16:28:52;17.55;;;4.22;;
52858;SDS011;38721;53.098;6.596;2023-01-04T16:31:19;20.55;;;3.75;;
52858;SDS011;38721;53.098;6.596;2023-01-04T16:33:45;15.63;;;3.40;;
52858;SDS011;38721;53.098;6.596;2023-01-04T16:36:14;14.05;;;3.92;;
52858;SDS011;38721;53.098;6.596;2023-01-04T16:38:41;21.42;;;3.83;;
52858;SDS011;38721;53.098;6.596;2023-01-04T16:41:10;16.67;;;4.00;;
52858;SDS011;38721;53.098;6.596;2023-01-04T16:43:42;21.98;;;5.40;;
52858;SDS011;38721;53.098;6.596;2023-01-04T16:48:46;24.15;;;4.68;;
52858;SDS011;38721;53.098;6.596;2023-01-04T16:51:14;19.20;;;3.83;;
52858;SDS011;38721;53.098;6.596;2023-01-04T16:53:40;18.23;;;4.57;;
52858;SDS011;38721;53.098;6.596;2023-01-04T16:56:09;19.20;;;4.00;;
52858;SDS011;38721;53.098;6.596;2023-01-04T16:58:38;17.17;;;4.22;;
52858;SDS011;38721;53.098;6.596;2023-01-04T17:01:09;20.58;;;4.10;;
52858;SDS011;38721;53.098;6.596;2023-01-04T17:03:36;27.17;;;4.10;;
52858;SDS011;38721;53.098;6.596;2023-01-04T17:06:09;21.98;;;4.28;;
52858;SDS011;38721;53.098;6.596;2023-01-04T17:08:47;21.75;;;4.03;;
52858;SDS011;38721;53.098;6.596;2023-01-04T17:11:16;18.48;;;3.60;;
52858;SDS011;38721;53.098;6.596;2023-01-04T17:13:46;18.85;;;3.53;;
52858;SDS011;38721;53.098;6.596;2023-01-04T17:16:15;20.83;;;4.55;;
52858;SDS011;38721;53.098;6.596;2023-01-04T17:18:42;19.33;;;4.43;;